ADDS METAR Data INFO
IDs: Format: Raw Decoded Include TAF

Data at: 1808 UTC 18 Feb 2018

KTVC 181753Z VRB06KT 10SM FEW090 BKN110 02/M07 A3019 RMK AO2 SLP230 T00171072 10017 21022 50000
KTVC 181653Z 22009KT 180V240 10SM FEW026 BKN180 01/M07 A3019 RMK AO2 SLP231 T00111067
KTVC 181553Z 21007KT 180V240 10SM FEW026 SCT036 01/M06 A3018 RMK AO2 SLP229 T00061061
KTVC 181453Z 22007KT 10SM FEW022 SCT026 M01/M06 A3018 RMK AO2 SLP229 T10061061 50012
KTVC 181353Z 23004KT 10SM BKN024 M01/M06 A3020 RMK AO2 SLP234 T10111061
KTVC 181253Z 00000KT 10SM FEW022 BKN026 M02/M06 A3018 RMK AO2 SLP230 T10221056
KTVC 181153Z 23003KT 10SM BKN026 OVC032 M02/M05 A3015 RMK AO2 SLP218 T10171050 11006 21039 50022
KTVC 181053Z AUTO 25005KT 10SM OVC026 M01/M06 A3015 RMK AO2 SLP218 T10111056
KTVC 180953Z AUTO 26006KT 10SM BKN021 M02/M06 A3010 RMK AO2 SLP203 T10221056
KTVC 180853Z AUTO 27007KT 10SM CLR M02/M06 A3008 RMK AO2 SLP194 T10221056 51030
KTVC 180810Z AUTO 28009KT 10SM SCT023 M02/M06 A3006 RMK AO2 T10171056
KTVC 180753Z AUTO 27010KT 10SM BKN023 M01/M05 A3006 RMK AO2 SLP186 T10111050
KTVC 180653Z AUTO 28013KT 10SM OVC022 M01/M05 A3002 RMK AO2 SLP174 T10061050
KTVC 180553Z AUTO 24007KT 10SM OVC024 M01/M05 A2999 RMK AO2 SLP163 60000 T10111050 11006 21017 53023
KTVC 180453Z AUTO 24005KT 10SM OVC021 M01/M05 A2997 RMK AO2 SLP156 T10111050 400171072
KTVC 180353Z AUTO 26013G20KT 10SM OVC015 M01/M04 A2994 RMK AO2 SLP148 T10111044
KTVC 180253Z AUTO 25008KT 10SM OVC015 M01/M03 A2992 RMK AO2 SNE01 SLP140 P0000 60000 T10061033 53014
KTVC 180246Z AUTO 26007KT 10SM OVC015 M01/M03 A2992 RMK AO2 SNE01 P0000 T10111033
KTVC 180209Z AUTO 24007KT 10SM OVC012 M01/M04 A2990 RMK AO2 SNE01 P0000 T10111039
KTVC 180153Z 23007KT 7SM -SN SCT015 BKN020 OVC070 M02/M04 A2990 RMK AO2 SLP132 LAST P0000 T10171039
KTVC 180131Z 22007KT 4SM -SN BR SCT023 OVC044 M02/M04 A2989 RMK AO2 P0000 T10171039
KTVC 180053Z 22008KT 2SM -SN BR FEW014 OVC027 M02/M04 A2988 RMK AO2 SFC VIS 2 1/2 SLP128 P0000 T10171039
KTVC 172353Z 20009G14KT 170V240 2SM -SN OVC023 M02/M04 A2988 RMK AO2 SLP127 P0000 60000 T10171044 10017 21017 53010
KTVC 172340Z 21007KT 2SM -SN FEW018 OVC028 M02/M05 A2988 RMK AO2 P0000 T10171050
KTVC 172253Z 25011G17KT 9SM -SN OVC050 M01/M08 A2986 RMK AO2 SLP121 P0000 T10061078
KTVC 172153Z 23008G17KT 9SM -SN FEW022 OVC048 M01/M07 A2986 RMK AO2 SNB36 SLP120 P0000 T10061067
KTVC 172053Z 22012G17KT 10SM OVC055 01/M10 A2985 RMK AO2 SLP116 T00111100 56022
KTVC 171953Z 24012G24KT 200V270 10SM BKN060 OVC200 01/M11 A2986 RMK AO2 SLP118 T00111111
KTVC 171853Z 23011G18KT 10SM SCT110 BKN200 01/M12 A2988 RMK AO2 SLP126 T00111117
KTVC 171753Z 23013G19KT 190V260 10SM SCT120 BKN200 01/M11 A2991 RMK AO2 SLP138 T00061111 10011 21056 58025
KTVC 171653Z 21011G19KT 10SM SCT120 BKN180 M01/M11 A2995 RMK AO2 SLP149 T10061106
KTVC 171553Z VRB06KT 10SM SCT120 BKN140 M02/M10 A2998 RMK AO2 SLP161 T10221100
KTVC 171453Z 19010G21KT 10SM SCT110 BKN150 M03/M10 A2999 RMK AO2 SLP165 T10331100 58015
KTVC 171353Z 18008KT 10SM OVC150 M04/M11 A3002 RMK AO2 SLP176 T10441106
KTVC 171253Z VRB06KT 10SM SCT120 BKN150 M05/M11 A3003 RMK AO2 SLP179 T10501111
KTVC 171153Z VRB05KT 10SM SCT110 BKN150 M06/M12 A3003 RMK AO2 SLP181 T10561117 11056 21072 58023
KTVC 171053Z AUTO VRB06KT 10SM CLR M06/M12 A3006 RMK AO2 SLP189 T10611122
KTVC 170953Z AUTO 20005KT 10SM CLR M07/M13 A3008 RMK AO2 SLP196 T10671128
KTVC 170853Z AUTO 20003KT 10SM CLR M07/M12 A3010 RMK AO2 SLP205 T10721122 56015
KTVC 170753Z AUTO 22005KT 10SM CLR M07/M12 A3012 RMK AO2 SLP208 T10671122
KTVC 170653Z AUTO 20003KT 10SM CLR M07/M12 A3012 RMK AO2 SLP210 T10671117